createdAt,value
2022-10-22T00:00:16.782Z,100919.09
2022-10-22T00:00:48.412Z,100926.91
2022-10-22T00:01:20.286Z,100928.47
2022-10-22T00:01:51.753Z,100914.03
2022-10-22T00:02:23.364Z,100924.56
2022-10-22T00:02:54.898Z,100910.88
2022-10-22T00:03:26.490Z,100919.09
2022-10-22T00:03:57.899Z,100915.19
2022-10-22T00:04:34.375Z,100929.25
2022-10-22T00:05:07.308Z,100922.22
2022-10-22T00:05:38.796Z,100923.00
2022-10-22T00:06:10.278Z,100921.81
2022-10-22T00:06:42.820Z,100926.91
2022-10-22T00:07:14.741Z,100924.97
2022-10-22T00:07:46.151Z,100926.50
2022-10-22T00:08:17.959Z,100932.00
2022-10-22T00:08:49.437Z,100927.69
2022-10-22T00:09:21.034Z,100919.88
2022-10-22T00:09:52.641Z,100933.53
2022-10-22T00:10:24.203Z,100931.97
2022-10-22T00:10:55.670Z,100921.84
2022-10-22T00:11:27.190Z,100931.59
2022-10-22T00:11:58.603Z,100931.59
2022-10-22T00:12:30.149Z,100931.22
2022-10-22T00:13:01.490Z,100917.91
2022-10-22T00:13:32.898Z,100927.69
2022-10-22T00:14:04.969Z,100928.06
2022-10-22T00:14:37.007Z,100931.19
2022-10-22T00:15:08.754Z,100928.44
2022-10-22T00:15:40.322Z,100924.53
2022-10-22T00:16:11.988Z,100931.56
2022-10-22T00:16:43.860Z,100932.34
2022-10-22T00:17:15.447Z,100928.44
2022-10-22T00:17:47.246Z,100931.97
2022-10-22T00:18:18.923Z,100924.53
2022-10-22T00:18:50.367Z,100930.78
2022-10-22T00:19:21.950Z,100935.06
2022-10-22T00:19:53.412Z,100932.31
2022-10-22T00:20:24.837Z,100933.50
2022-10-22T00:20:56.538Z,100937.03
2022-10-22T00:21:29.132Z,100934.28
2022-10-22T00:22:00.495Z,100939.38
2022-10-22T00:22:32.885Z,100938.97
2022-10-22T00:23:04.398Z,100942.91
2022-10-22T00:23:35.859Z,100939.34
2022-10-22T00:24:07.785Z,100935.47
2022-10-22T00:24:40.186Z,100939.38
2022-10-22T00:25:11.664Z,100942.13
2022-10-22T00:25:43.095Z,100946.41
2022-10-22T00:26:14.510Z,100944.84
2022-10-22T00:26:46.202Z,100943.28
2022-10-22T00:27:17.911Z,100941.31
2022-10-22T00:27:49.375Z,100944.84
2022-10-22T00:28:20.946Z,100942.50
2022-10-22T00:28:53.202Z,100944.84
2022-10-22T00:29:25.005Z,100948.38
2022-10-22T00:29:56.430Z,100941.31
2022-10-22T00:30:28.057Z,100940.53
2022-10-22T00:31:00.917Z,100944.44
2022-10-22T00:31:32.402Z,100936.59
2022-10-22T00:32:04.923Z,100941.31
2022-10-22T00:32:36.514Z,100947.16
2022-10-22T00:33:08.088Z,100944.81
2022-10-22T00:33:39.907Z,100949.09
2022-10-22T00:34:11.504Z,100946.75
2022-10-22T00:34:43.125Z,100949.09
2022-10-22T00:35:14.716Z,100950.28
2022-10-22T00:35:47.372Z,100950.66
2022-10-22T00:36:18.933Z,100954.59
2022-10-22T00:36:51.173Z,100954.97
2022-10-22T00:37:22.676Z,100945.59
2022-10-22T00:37:54.095Z,100946.38
2022-10-22T00:38:25.709Z,100946.38
2022-10-22T00:38:57.079Z,100942.88
2022-10-22T00:39:29.188Z,100956.13
2022-10-22T00:40:00.755Z,100946.38
2022-10-22T00:40:32.459Z,100944.41
2022-10-22T00:41:04.038Z,100944.81
2022-10-22T00:41:35.527Z,100939.34
2022-10-22T00:42:07.178Z,100939.34
2022-10-22T00:42:39.121Z,100939.34
2022-10-22T00:43:12.734Z,100945.59
2022-10-22T00:43:56.380Z,100945.19
2022-10-22T00:45:05.520Z,100952.25
2022-10-22T00:45:36.932Z,100947.56
2022-10-22T00:46:08.307Z,100956.53
2022-10-22T00:46:39.989Z,100950.28
2022-10-22T00:47:11.571Z,100950.28
2022-10-22T00:47:49.878Z,100955.34
2022-10-22T00:48:27.198Z,100958.09
2022-10-22T00:49:02.341Z,100950.66
2022-10-22T00:49:33.958Z,100954.97
2022-10-22T00:50:09.768Z,100956.91
2022-10-22T00:50:50.723Z,100954.97
2022-10-22T00:51:26.859Z,100948.72
2022-10-22T00:51:58.452Z,100953.41
2022-10-22T00:52:30.310Z,100954.97
2022-10-22T00:53:03.930Z,100945.97
2022-10-22T00:53:41.707Z,100949.91
2022-10-22T00:54:13.345Z,100946.38
2022-10-22T00:54:45.040Z,100941.72
2022-10-22T00:55:18.438Z,100951.84
2022-10-22T00:55:53.160Z,100946.75
2022-10-22T00:56:24.848Z,100943.25
2022-10-22T00:56:56.488Z,100951.88
2022-10-22T00:57:28.600Z,100953.41
2022-10-22T00:58:02.202Z,100945.19
2022-10-22T00:58:36.775Z,100947.94
2022-10-22T00:59:40.782Z,100947.94
2022-10-22T01:00:12.891Z,100945.22
2022-10-22T01:00:44.781Z,100949.50
2022-10-22T01:01:24.721Z,100949.13
2022-10-22T01:01:56.297Z,100953.44
2022-10-22T01:02:27.761Z,100946.00
2022-10-22T01:02:59.544Z,100949.50
2022-10-22T01:03:32.191Z,100942.47
2022-10-22T01:04:03.686Z,100949.50
2022-10-22T01:04:35.181Z,100941.28
2022-10-22T01:05:07.344Z,100953.03
2022-10-22T01:05:44.170Z,100946.38
2022-10-22T01:06:26.762Z,100952.25
2022-10-22T01:06:58.593Z,100950.28
2022-10-22T01:07:30.336Z,100949.91
2022-10-22T01:08:02.084Z,100944.44
2022-10-22T01:08:43.967Z,100951.47
2022-10-22T01:09:33.914Z,100953.41
2022-10-22T01:10:11.748Z,100951.44
2022-10-22T01:10:58.763Z,100948.34
2022-10-22T01:11:46.515Z,100956.16
2022-10-22T01:12:39.831Z,100955.34
2022-10-22T01:13:53.116Z,100960.44
2022-10-22T01:15:03.889Z,100961.63
2022-10-22T01:15:48.564Z,100951.84
2022-10-22T01:16:41.835Z,100953.41
2022-10-22T01:17:30.705Z,100953.41
2022-10-22T01:18:37.776Z,100960.81
2022-10-22T01:19:30.442Z,100954.19
2022-10-22T01:20:14.800Z,100955.75
2022-10-22T01:20:58.146Z,100954.19
2022-10-22T01:21:35.992Z,100951.84
2022-10-22T01:22:23.843Z,100954.56
2022-10-22T01:23:11.219Z,100954.19
2022-10-22T01:24:03.563Z,100950.28
2022-10-22T01:24:49.376Z,100953.00
2022-10-22T01:25:55.971Z,100944.03
2022-10-22T01:26:57.048Z,100946.38
2022-10-22T01:27:39.795Z,100946.38
2022-10-22T01:28:18.520Z,100946.38
2022-10-22T01:29:18.543Z,100942.88
2022-10-22T01:29:51.890Z,100950.28
2022-10-22T01:30:24.862Z,100945.19
2022-10-22T01:30:59.659Z,100946.78
2022-10-22T01:31:39.117Z,100949.13
2022-10-22T01:32:15.209Z,100949.91
2022-10-22T01:32:51.775Z,100946.78
2022-10-22T01:33:25.929Z,100951.84
2022-10-22T01:34:00.367Z,100947.16
2022-10-22T01:34:33.334Z,100952.63
2022-10-22T01:35:09.283Z,100952.22
2022-10-22T01:35:44.369Z,100958.47
2022-10-22T01:36:17.689Z,100955.75
2022-10-22T01:36:51.731Z,100950.66
2022-10-22T01:37:28.654Z,100962.41
2022-10-22T01:38:04.201Z,100950.28
2022-10-22T01:38:36.429Z,100956.94
2022-10-22T01:39:08.792Z,100952.25
2022-10-22T01:39:44.019Z,100953.03
2022-10-22T01:40:16.472Z,100957.31
2022-10-22T01:40:50.135Z,100956.53
2022-10-22T01:41:21.698Z,100951.06
2022-10-22T01:41:55.708Z,100957.31
2022-10-22T01:42:27.188Z,100953.03
2022-10-22T01:43:00.745Z,100953.03
2022-10-22T01:43:32.149Z,100949.09
2022-10-22T01:44:03.588Z,100951.06
2022-10-22T01:45:14.645Z,100953.03
2022-10-22T01:45:50.330Z,100959.69
2022-10-22T01:46:25.141Z,100959.31
2022-10-22T01:47:11.879Z,100951.47
2022-10-22T01:47:50.969Z,100952.25
2022-10-22T01:48:53.511Z,100955.00
2022-10-22T01:49:40.010Z,100947.19
2022-10-22T01:50:26.168Z,100956.16
2022-10-22T01:51:07.027Z,100954.22
2022-10-22T01:51:55.429Z,100962.41
2022-10-22T01:52:51.437Z,100958.13
2022-10-22T01:53:30.592Z,100961.63
2022-10-22T01:54:31.271Z,100954.97
2022-10-22T01:55:36.205Z,100959.28
2022-10-22T01:56:28.674Z,100957.72
2022-10-22T01:57:19.510Z,100954.97
2022-10-22T01:58:18.315Z,100948.72
2022-10-22T01:58:55.827Z,100954.19
2022-10-22T01:59:39.370Z,100959.66
2022-10-22T02:00:13.489Z,100951.47
2022-10-22T02:00:55.292Z,100958.47
2022-10-22T02:01:42.746Z,100954.97
2022-10-22T02:02:58.351Z,100958.09
2022-10-22T02:03:40.668Z,100954.97
2022-10-22T02:04:23.045Z,100945.19
2022-10-22T02:05:03.760Z,100956.53
2022-10-22T02:05:45.928Z,100957.31
2022-10-22T02:06:23.516Z,100951.84
2022-10-22T02:06:59.120Z,100943.22
2022-10-22T02:07:41.273Z,100946.00
2022-10-22T02:08:18.064Z,100939.34
2022-10-22T02:08:52.055Z,100940.91
2022-10-22T02:09:27.296Z,100946.38
2022-10-22T02:10:00.921Z,100939.34
2022-10-22T02:10:33.143Z,100943.63
2022-10-22T02:11:05.693Z,100941.28
2022-10-22T02:11:37.870Z,100941.28
2022-10-22T02:12:10.610Z,100947.91
2022-10-22T02:12:44.974Z,100941.25
2022-10-22T02:13:24.378Z,100940.47
2022-10-22T02:14:01.195Z,100941.66
2022-10-22T02:14:35.650Z,100933.84
2022-10-22T02:15:13.404Z,100936.59
2022-10-22T02:15:46.881Z,100941.25
2022-10-22T02:16:27.695Z,100929.94
2022-10-22T02:17:00.295Z,100933.06
2022-10-22T02:17:34.898Z,100935.00
2022-10-22T02:18:09.217Z,100935.78
2022-10-22T02:18:44.982Z,100933.44
2022-10-22T02:19:28.391Z,100938.13
2022-10-22T02:20:12.768Z,100939.69
2022-10-22T02:20:44.462Z,100933.03
2022-10-22T02:21:16.599Z,100932.66
2022-10-22T02:21:48.209Z,100935.38
2022-10-22T02:22:20.593Z,100936.94
2022-10-22T02:22:52.750Z,100938.50
2022-10-22T02:23:24.416Z,100942.41
2022-10-22T02:23:56.449Z,100933.81
2022-10-22T02:24:28.250Z,100923.66
2022-10-22T02:25:00.394Z,100936.56
2022-10-22T02:25:38.579Z,100922.91
2022-10-22T02:26:21.751Z,100921.72
2022-10-22T02:27:05.767Z,100926.78
2022-10-22T02:27:49.227Z,100925.63
2022-10-22T02:28:43.472Z,100929.53
2022-10-22T02:29:27.732Z,100927.97
2022-10-22T02:30:08.628Z,100931.84
2022-10-22T02:30:44.549Z,100924.44
2022-10-22T02:31:24.183Z,100927.19
2022-10-22T02:31:58.483Z,100926.41
2022-10-22T02:32:40.440Z,100933.03
2022-10-22T02:33:18.353Z,100925.59
2022-10-22T02:33:54.656Z,100926.38
2022-10-22T02:34:30.763Z,100938.50
2022-10-22T02:35:03.752Z,100931.47
2022-10-22T02:35:36.363Z,100929.88
2022-10-22T02:36:08.943Z,100932.25
2022-10-22T02:36:46.692Z,100930.66
2022-10-22T02:37:22.808Z,100934.97
2022-10-22T02:37:56.481Z,100941.59
2022-10-22T02:38:29.101Z,100930.69
2022-10-22T02:39:01.708Z,100933.00
2022-10-22T02:39:34.010Z,100936.94
2022-10-22T02:40:06.418Z,100936.94
2022-10-22T02:40:38.220Z,100938.47
2022-10-22T02:41:10.334Z,100940.81
2022-10-22T02:41:42.658Z,100933.78
2022-10-22T02:42:14.770Z,100934.19
2022-10-22T02:42:48.117Z,100934.97
2022-10-22T02:43:19.739Z,100936.91
2022-10-22T02:43:55.030Z,100939.25
2022-10-22T02:44:26.497Z,100934.97
2022-10-22T02:44:58.093Z,100933.00
2022-10-22T02:45:29.776Z,100938.88
2022-10-22T02:46:01.293Z,100936.16
2022-10-22T02:46:33.095Z,100939.63
2022-10-22T02:47:04.841Z,100939.25
2022-10-22T02:47:36.342Z,100936.91
2022-10-22T02:48:07.839Z,100939.25
2022-10-22T02:48:39.265Z,100949.41
2022-10-22T02:49:10.678Z,100945.09
2022-10-22T02:49:42.083Z,100943.94
2022-10-22T02:50:14.149Z,100945.09
2022-10-22T02:50:45.573Z,100943.56
2022-10-22T02:51:17.056Z,100941.59
2022-10-22T02:51:48.782Z,100947.84
2022-10-22T02:52:20.277Z,100937.28
2022-10-22T02:52:51.696Z,100936.47
2022-10-22T02:53:23.153Z,100935.69
2022-10-22T02:53:54.558Z,100941.19
2022-10-22T02:54:26.642Z,100943.53
2022-10-22T02:54:58.022Z,100934.53
2022-10-22T02:55:29.650Z,100947.81
2022-10-22T02:56:01.238Z,100946.66
2022-10-22T02:56:33.341Z,100938.84
2022-10-22T02:57:04.914Z,100940.00
2022-10-22T02:57:36.692Z,100948.97
2022-10-22T02:58:08.161Z,100943.09
2022-10-22T02:58:39.728Z,100948.94
2022-10-22T02:59:11.318Z,100943.91
2022-10-22T02:59:42.850Z,100948.56
2022-10-22T03:00:15.554Z,100943.50
2022-10-22T03:00:48.766Z,100939.56
2022-10-22T03:01:20.281Z,100937.19
2022-10-22T03:01:51.970Z,100941.13
2022-10-22T03:02:23.588Z,100950.13
2022-10-22T03:02:54.996Z,100945.44
2022-10-22T03:03:26.528Z,100949.34
2022-10-22T03:03:57.888Z,100950.91
2022-10-22T03:04:29.453Z,100957.16
2022-10-22T03:05:01.027Z,100947.34
2022-10-22T03:05:32.587Z,100952.44
2022-10-22T03:06:04.241Z,100946.53
2022-10-22T03:06:35.875Z,100950.06
2022-10-22T03:07:07.403Z,100954.78
2022-10-22T03:07:39.308Z,100954.78
2022-10-22T03:08:11.008Z,100952.06
2022-10-22T03:08:42.727Z,100950.47
2022-10-22T03:09:14.238Z,100949.72
2022-10-22T03:09:45.768Z,100947.75
2022-10-22T03:10:17.357Z,100951.63
2022-10-22T03:10:48.791Z,100954.41
2022-10-22T03:11:20.257Z,100956.75
2022-10-22T03:11:51.833Z,100951.22
2022-10-22T03:12:23.318Z,100946.16
2022-10-22T03:12:54.797Z,100953.22
2022-10-22T03:13:26.179Z,100946.19
2022-10-22T03:13:57.700Z,100949.72
2022-10-22T03:14:29.129Z,100949.72
2022-10-22T03:15:00.661Z,100948.13
2022-10-22T03:15:32.208Z,100946.53
2022-10-22T03:16:03.874Z,100946.53
2022-10-22T03:16:35.437Z,100948.94
2022-10-22T03:17:07.029Z,100948.13
2022-10-22T03:17:38.797Z,100946.97
2022-10-22T03:18:10.398Z,100949.34
2022-10-22T03:18:42.082Z,100937.56
2022-10-22T03:19:13.557Z,100942.31
2022-10-22T03:19:45.184Z,100944.25
2022-10-22T03:20:16.636Z,100947.34
2022-10-22T03:20:48.139Z,100951.28
2022-10-22T03:21:28.375Z,100946.97
2022-10-22T03:22:04.284Z,100947.34
2022-10-22T03:22:36.837Z,100946.16
2022-10-22T03:23:08.462Z,100946.97
2022-10-22T03:23:42.607Z,100944.59
2022-10-22T03:24:19.940Z,100953.97
2022-10-22T03:24:54.765Z,100956.31
2022-10-22T03:25:28.510Z,100955.16
2022-10-22T03:26:32.591Z,100955.94
2022-10-22T03:27:04.161Z,100960.22
2022-10-22T03:27:38.371Z,100949.69
2022-10-22T03:28:13.002Z,100959.84
2022-10-22T03:28:46.782Z,100948.91
2022-10-22T03:29:19.751Z,100954.75
2022-10-22T03:29:52.560Z,100957.88
2022-10-22T03:30:23.981Z,100954.00
2022-10-22T03:30:55.450Z,100960.25
2022-10-22T03:31:26.929Z,100952.06
2022-10-22T03:31:58.557Z,100955.97
2022-10-22T03:32:29.962Z,100949.34
2022-10-22T03:33:01.461Z,100956.75
2022-10-22T03:33:33.196Z,100944.25
2022-10-22T03:34:04.783Z,100948.94
2022-10-22T03:34:36.407Z,100958.31
2022-10-22T03:35:08.089Z,100953.56
2022-10-22T03:35:44.685Z,100956.31
2022-10-22T03:36:16.098Z,100961.03
2022-10-22T03:36:48.610Z,100954.41
2022-10-22T03:37:20.561Z,100963.41
2022-10-22T03:37:52.355Z,100957.53
2022-10-22T03:38:23.986Z,100948.56
2022-10-22T03:38:55.640Z,100959.47
2022-10-22T03:39:29.358Z,100961.44
2022-10-22T03:40:01.750Z,100955.59
2022-10-22T03:40:33.284Z,100961.03
2022-10-22T03:41:04.937Z,100952.00
2022-10-22T03:41:36.569Z,100956.75
2022-10-22T03:42:08.839Z,100952.47
2022-10-22T03:42:41.562Z,100957.16
2022-10-22T03:43:13.419Z,100948.19
2022-10-22T03:43:49.785Z,100950.94
2022-10-22T03:44:22.621Z,100956.38
2022-10-22T03:44:54.055Z,100950.94
2022-10-22T03:45:25.690Z,100954.81
2022-10-22T03:45:57.193Z,100952.47
2022-10-22T03:46:28.908Z,100968.53
2022-10-22T03:47:02.630Z,100961.50
2022-10-22T03:47:34.494Z,100961.50
2022-10-22T03:48:06.312Z,100959.16
2022-10-22T03:48:37.695Z,100954.44
2022-10-22T03:49:09.516Z,100961.13
2022-10-22T03:49:41.005Z,100959.16
2022-10-22T03:50:12.490Z,100962.69
2022-10-22T03:50:44.033Z,100962.69
2022-10-22T03:51:15.651Z,100971.25
2022-10-22T03:51:47.102Z,100965.03
2022-10-22T03:52:18.687Z,100968.16
2022-10-22T03:52:50.097Z,100967.34
2022-10-22T03:53:21.882Z,100966.59
2022-10-22T03:53:53.343Z,100967.38
2022-10-22T03:54:25.000Z,100968.53
2022-10-22T03:54:56.558Z,100978.69
2022-10-22T03:55:28.713Z,100964.22
2022-10-22T03:56:00.177Z,100968.13
2022-10-22T03:56:31.668Z,100968.94
2022-10-22T03:57:04.911Z,100970.50
2022-10-22T03:57:37.047Z,100963.47
2022-10-22T03:58:08.837Z,100970.50
2022-10-22T03:58:41.377Z,100979.06
2022-10-22T03:59:13.165Z,100968.94
2022-10-22T03:59:46.058Z,100971.25
2022-10-22T04:00:17.921Z,100970.09
2022-10-22T04:00:49.469Z,100969.72
2022-10-22T04:01:21.160Z,100975.56
2022-10-22T04:01:52.793Z,100974.78
2022-10-22T04:02:24.236Z,100972.44
2022-10-22T04:02:55.737Z,100963.47
2022-10-22T04:03:27.202Z,100984.53
2022-10-22T04:03:59.084Z,100977.91
2022-10-22T04:04:30.953Z,100979.47
2022-10-22T04:05:02.622Z,100974.00
2022-10-22T04:05:34.395Z,100974.00
2022-10-22T04:06:11.949Z,100963.84
2022-10-22T04:06:43.408Z,100968.94
2022-10-22T04:07:14.910Z,100971.28
2022-10-22T04:07:46.443Z,100984.53
2022-10-22T04:08:18.101Z,100971.25
2022-10-22T04:08:49.909Z,100974.41
2022-10-22T04:09:21.644Z,100979.06
2022-10-22T04:09:53.185Z,100975.16
2022-10-22T04:10:24.687Z,100971.66
2022-10-22T04:10:56.350Z,100978.69
2022-10-22T04:11:27.871Z,100972.03
2022-10-22T04:12:00.490Z,100979.47
2022-10-22T04:12:32.133Z,100982.97
2022-10-22T04:13:03.710Z,100975.94
2022-10-22T04:13:35.773Z,100976.75
2022-10-22T04:14:07.290Z,100972.03
2022-10-22T04:14:38.821Z,100973.59
2022-10-22T04:15:10.401Z,100986.91
2022-10-22T04:15:42.016Z,100975.16
2022-10-22T04:16:19.534Z,100974.41
2022-10-22T04:16:50.915Z,100979.47
2022-10-22T04:17:22.461Z,100978.69
2022-10-22T04:17:54.768Z,100976.75
2022-10-22T04:18:26.205Z,100971.25
2022-10-22T04:18:58.365Z,100971.25
2022-10-22T04:19:30.056Z,100975.56
2022-10-22T04:20:02.605Z,100985.72
2022-10-22T04:20:34.042Z,100978.28
2022-10-22T04:21:07.053Z,100976.75
2022-10-22T04:21:38.498Z,100976.34
2022-10-22T04:22:09.929Z,100974.81
2022-10-22T04:22:41.493Z,100974.41
2022-10-22T04:23:13.571Z,100983.75
2022-10-22T04:23:50.282Z,100974.41
2022-10-22T04:24:21.758Z,100970.88
2022-10-22T04:24:53.164Z,100983.38
2022-10-22T04:25:24.707Z,100979.47
2022-10-22T04:25:59.871Z,100980.25
2022-10-22T04:26:31.366Z,100972.84
2022-10-22T04:27:02.832Z,100971.66
2022-10-22T04:27:35.330Z,100977.13
2022-10-22T04:28:08.245Z,100979.88
2022-10-22T04:28:40.109Z,100983.00
2022-10-22T04:29:15.901Z,100980.63
2022-10-22T04:29:48.010Z,100979.47
2022-10-22T04:30:19.397Z,100981.81
2022-10-22T04:30:50.947Z,100980.25
2022-10-22T04:31:24.758Z,100991.59
2022-10-22T04:31:56.297Z,100982.19
2022-10-22T04:32:28.528Z,100979.84
2022-10-22T04:33:00.021Z,100977.50
2022-10-22T04:33:31.488Z,100985.31
2022-10-22T04:34:03.079Z,100984.94
2022-10-22T04:34:34.522Z,100990.78
2022-10-22T04:35:06.368Z,100989.59
2022-10-22T04:35:39.963Z,100989.59
2022-10-22T04:36:17.359Z,100993.53
2022-10-22T04:36:48.804Z,100990.38
2022-10-22T04:37:20.892Z,100990.00
2022-10-22T04:37:52.296Z,100986.88
2022-10-22T04:38:23.855Z,100990.78
2022-10-22T04:38:57.710Z,100986.09
2022-10-22T04:39:29.272Z,100996.25
2022-10-22T04:40:00.684Z,100984.13
2022-10-22T04:40:32.306Z,100990.38
2022-10-22T04:41:18.925Z,100990.00
2022-10-22T04:41:50.357Z,100997.44
2022-10-22T04:42:21.920Z,100992.34
2022-10-22T04:42:53.560Z,100993.13
2022-10-22T04:43:25.033Z,100986.88
2022-10-22T04:43:57.291Z,100991.19
2022-10-22T04:44:28.874Z,100996.25
2022-10-22T04:45:00.378Z,100994.31
2022-10-22T04:45:33.569Z,100992.38
2022-10-22T04:46:05.752Z,100996.66
2022-10-22T04:46:37.504Z,100987.69
2022-10-22T04:47:08.973Z,100990.41
2022-10-22T04:47:40.644Z,100988.47
2022-10-22T04:48:12.264Z,100989.25
2022-10-22T04:48:45.161Z,100991.59
2022-10-22T04:49:16.669Z,100979.47
2022-10-22T04:49:48.166Z,100989.66
2022-10-22T04:50:19.556Z,100996.69
2022-10-22T04:50:51.031Z,100995.13
2022-10-22T04:51:25.556Z,100992.75
2022-10-22T04:51:57.242Z,100990.00
2022-10-22T04:52:28.714Z,100997.03
2022-10-22T04:53:00.181Z,100984.53
2022-10-22T04:53:31.650Z,100990.81
2022-10-22T04:54:03.248Z,100991.97
2022-10-22T04:54:34.737Z,100991.56
2022-10-22T04:55:06.594Z,100994.72
2022-10-22T04:55:38.218Z,100987.69
2022-10-22T04:56:21.967Z,100998.22
2022-10-22T04:56:53.376Z,100991.56
2022-10-22T04:57:24.781Z,100993.16
2022-10-22T04:57:56.180Z,100997.44
2022-10-22T04:58:27.533Z,100999.41
2022-10-22T04:59:01.646Z,101001.75
2022-10-22T04:59:33.153Z,100996.28
2022-10-22T05:00:05.286Z,101001.75
2022-10-22T05:00:36.821Z,100998.59
2022-10-22T05:01:13.602Z,101003.31
2022-10-22T05:01:45.296Z,101002.94
2022-10-22T05:02:16.725Z,101004.88
2022-10-22T05:02:51.261Z,101002.16
2022-10-22T05:03:25.193Z,101000.97
2022-10-22T05:03:59.058Z,100999.00
2022-10-22T05:04:30.568Z,101002.16
2022-10-22T05:05:02.591Z,101000.97
2022-10-22T05:05:34.074Z,101005.25
2022-10-22T05:06:06.097Z,101000.59
2022-10-22T05:06:37.986Z,101000.59
2022-10-22T05:07:09.380Z,100991.56
2022-10-22T05:07:41.012Z,100997.44
2022-10-22T05:08:12.624Z,101003.31
2022-10-22T05:08:44.586Z,100996.25
2022-10-22T05:09:18.828Z,101003.31
2022-10-22T05:09:50.293Z,100999.41
2022-10-22T05:10:21.665Z,101006.06
2022-10-22T05:10:53.151Z,100998.59
2022-10-22T05:11:30.848Z,100995.88
2022-10-22T05:12:02.186Z,101006.44
2022-10-22T05:12:35.150Z,101002.91
2022-10-22T05:13:06.677Z,100997.03
2022-10-22T05:13:38.575Z,101006.44
2022-10-22T05:14:11.106Z,101001.72
2022-10-22T05:14:44.732Z,101002.50
2022-10-22T05:15:16.475Z,101000.94
2022-10-22T05:15:47.934Z,101002.91
2022-10-22T05:16:19.459Z,101002.50
2022-10-22T05:16:52.023Z,101000.97
2022-10-22T05:17:23.508Z,101002.53
2022-10-22T05:17:54.879Z,100999.78
2022-10-22T05:18:26.333Z,101006.44
2022-10-22T05:18:59.976Z,101000.19
2022-10-22T05:19:31.981Z,101002.91
2022-10-22T05:20:05.026Z,101001.34
2022-10-22T05:20:40.709Z,101009.16
2022-10-22T05:21:17.812Z,101004.84
2022-10-22T05:21:49.867Z,101006.44
2022-10-22T05:22:21.328Z,101004.06
2022-10-22T05:22:52.760Z,101007.97
2022-10-22T05:23:24.170Z,101002.91
2022-10-22T05:23:56.770Z,101010.31
2022-10-22T05:24:29.887Z,101011.91
2022-10-22T05:25:01.441Z,101010.72
2022-10-22T05:25:37.565Z,101006.81
2022-10-22T05:26:11.021Z,101006.44
2022-10-22T05:26:42.436Z,101011.91
2022-10-22T05:27:14.149Z,101011.09
2022-10-22T05:27:49.922Z,101015.00
2022-10-22T05:28:21.504Z,101006.81
2022-10-22T05:28:53.025Z,101009.53
2022-10-22T05:29:24.851Z,101007.59
2022-10-22T05:29:56.344Z,101006.03
2022-10-22T05:30:27.807Z,101013.84
2022-10-22T05:31:00.714Z,101015.00
2022-10-22T05:31:32.182Z,101003.28
2022-10-22T05:32:03.827Z,101006.41
2022-10-22T05:32:35.866Z,101002.50
2022-10-22T05:33:07.383Z,101009.53
2022-10-22T05:33:39.940Z,101008.34
2022-10-22T05:34:11.496Z,101003.69
2022-10-22T05:34:43.045Z,101009.13
2022-10-22T05:35:14.642Z,101011.09
2022-10-22T05:35:46.851Z,101012.63
2022-10-22T05:36:22.369Z,101012.66
2022-10-22T05:36:53.888Z,101010.72
2022-10-22T05:37:25.269Z,101004.06
2022-10-22T05:38:28.394Z,101006.41
2022-10-22T05:38:59.844Z,101007.94
2022-10-22T05:39:31.303Z,101004.44
2022-10-22T05:40:18.887Z,101015.78
2022-10-22T05:41:05.382Z,101017.34
2022-10-22T05:41:37.274Z,101010.31
2022-10-22T05:42:08.832Z,101009.13
2022-10-22T05:42:40.569Z,101006.75
2022-10-22T05:43:12.731Z,101017.72
2022-10-22T05:43:44.927Z,101016.94
2022-10-22T05:44:16.507Z,101020.81
2022-10-22T05:44:48.414Z,101015.75
2022-10-22T05:45:19.983Z,101016.53
2022-10-22T05:45:51.742Z,101011.81
2022-10-22T05:46:25.914Z,101023.19
2022-10-22T05:46:57.481Z,101018.09
2022-10-22T05:47:32.117Z,101016.16
2022-10-22T05:48:03.982Z,101018.09
2022-10-22T05:48:37.017Z,101029.44
2022-10-22T05:49:08.657Z,101021.59
2022-10-22T05:49:40.163Z,101018.47
2022-10-22T05:50:11.580Z,101019.25
2022-10-22T05:50:43.061Z,101012.59
2022-10-22T05:51:14.503Z,101020.41
2022-10-22T05:51:46.811Z,101022.78
2022-10-22T05:52:18.280Z,101024.72
2022-10-22T05:52:49.727Z,101022.00
2022-10-22T05:53:21.254Z,101022.38
2022-10-22T05:53:55.126Z,101026.25
2022-10-22T05:54:26.872Z,101032.91
2022-10-22T05:54:58.288Z,101017.66
2022-10-22T05:55:29.864Z,101039.16
2022-10-22T05:56:06.626Z,101030.16
2022-10-22T05:56:38.469Z,101026.25
2022-10-22T05:57:09.909Z,101017.25
2022-10-22T05:57:41.340Z,101030.56
2022-10-22T05:58:13.741Z,101027.44
2022-10-22T05:58:45.594Z,101025.06
2022-10-22T05:59:17.211Z,101029.38
2022-10-22T05:59:48.656Z,101031.69
2022-10-22T06:00:20.237Z,101038.72
2022-10-22T06:00:51.664Z,101024.25
2022-10-22T06:01:28.612Z,101029.34
2022-10-22T06:02:00.152Z,101031.28
2022-10-22T06:02:31.797Z,101033.25
2022-10-22T06:03:03.433Z,101033.19
2022-10-22T06:03:35.378Z,101035.97
2022-10-22T06:04:10.045Z,101035.97
2022-10-22T06:04:41.550Z,101038.69
2022-10-22T06:05:13.008Z,101039.09
2022-10-22T06:05:44.460Z,101028.16
2022-10-22T06:06:24.656Z,101039.88
2022-10-22T06:06:56.255Z,101035.53
2022-10-22T06:07:27.861Z,101035.19
2022-10-22T06:07:59.379Z,101034.41
2022-10-22T06:08:31.396Z,101031.22
2022-10-22T06:09:30.626Z,101048.84
2022-10-22T06:10:02.261Z,101051.59
2022-10-22T06:10:33.846Z,101041.38
2022-10-22T06:11:05.461Z,101044.91
2022-10-22T06:11:37.054Z,101041.38
2022-10-22T06:12:10.897Z,101041.78
2022-10-22T06:12:42.749Z,101046.13
2022-10-22T06:13:14.404Z,101047.69
2022-10-22T06:13:47.188Z,101043.72
2022-10-22T06:14:19.389Z,101045.31
2022-10-22T06:14:51.199Z,101048.06
2022-10-22T06:15:22.756Z,101047.31
2022-10-22T06:15:54.179Z,101052.38
2022-10-22T06:16:25.746Z,101052.75
2022-10-22T06:16:59.664Z,101054.66
2022-10-22T06:17:31.152Z,101050.78
2022-10-22T06:18:02.907Z,101048.41
2022-10-22T06:18:34.614Z,101056.25
2022-10-22T06:19:06.847Z,101053.94
2022-10-22T06:19:38.447Z,101049.56
2022-10-22T06:20:10.551Z,101057.78
2022-10-22T06:20:43.707Z,101049.56
2022-10-22T06:21:16.355Z,101057.03
2022-10-22T06:21:48.642Z,101055.03
2022-10-22T06:22:20.076Z,101059.34
2022-10-22T06:22:51.512Z,101059.00
2022-10-22T06:23:34.140Z,101055.44
2022-10-22T06:24:06.005Z,101060.13
2022-10-22T06:24:40.434Z,101062.84
2022-10-22T06:25:14.589Z,101064.44
2022-10-22T06:25:56.820Z,101061.28
2022-10-22T06:26:28.901Z,101071.44
2022-10-22T06:27:00.329Z,101058.56
2022-10-22T06:27:32.201Z,101061.28
2022-10-22T06:28:04.146Z,101075.72
2022-10-22T06:28:36.049Z,101067.53
2022-10-22T06:29:08.171Z,101074.94
2022-10-22T06:29:40.382Z,101065.59
2022-10-22T06:30:12.169Z,101055.81
2022-10-22T06:30:45.882Z,101067.91
2022-10-22T06:31:18.410Z,101067.16